createdAt,value
2018-04-11T00:01:39.244Z,17.80
2018-04-11T00:04:06.863Z,14.67
2018-04-11T00:06:34.453Z,16.23
2018-04-11T00:09:02.085Z,14.07
2018-04-11T00:11:29.678Z,15.20
2018-04-11T00:13:57.277Z,17.43
2018-04-11T00:16:24.920Z,18.37
2018-04-11T00:18:52.548Z,17.17
2018-04-11T00:21:20.145Z,17.20
2018-04-11T00:23:47.785Z,19.20
2018-04-11T00:26:15.589Z,18.30
2018-04-11T00:28:43.183Z,17.40
2018-04-11T00:31:10.805Z,18.60
2018-04-11T00:33:38.432Z,17.10
2018-04-11T00:36:06.026Z,16.23
2018-04-11T00:38:33.756Z,16.73
2018-04-11T00:41:01.346Z,16.67
2018-04-11T00:43:28.936Z,16.23
2018-04-11T00:45:56.567Z,16.50
2018-04-11T00:48:24.157Z,15.47
2018-04-11T00:50:51.759Z,15.00
2018-04-11T00:53:27.148Z,13.70
2018-04-11T00:55:54.729Z,14.80
2018-04-11T00:58:22.373Z,15.27
2018-04-11T01:00:50.016Z,14.37
2018-04-11T01:03:17.612Z,14.20
2018-04-11T01:05:45.191Z,12.90
2018-04-11T01:08:12.829Z,13.17
2018-04-11T01:10:40.426Z,12.43
2018-04-11T01:13:08.039Z,13.23
2018-04-11T01:15:35.695Z,13.00
2018-04-11T01:18:03.272Z,13.63
2018-04-11T01:20:30.860Z,12.77
2018-04-11T01:22:58.494Z,13.10
2018-04-11T01:25:26.093Z,13.30
2018-04-11T01:27:53.691Z,16.00
2018-04-11T01:30:21.337Z,11.53
2018-04-11T01:32:48.924Z,14.40
2018-04-11T01:35:16.516Z,15.23
2018-04-11T01:37:44.143Z,13.47
2018-04-11T01:40:11.735Z,14.53
2018-04-11T01:42:39.328Z,15.10
2018-04-11T01:45:06.957Z,13.53
2018-04-11T01:47:34.780Z,13.33
2018-04-11T01:50:02.455Z,13.80
2018-04-11T01:52:30.081Z,13.33
2018-04-11T01:54:57.768Z,15.20
2018-04-11T01:57:25.433Z,13.67
2018-04-11T01:59:53.097Z,15.27
2018-04-11T02:02:20.759Z,15.33
2018-04-11T02:04:48.352Z,13.97
2018-04-11T02:07:15.992Z,13.33
2018-04-11T02:09:43.692Z,12.47
2018-04-11T02:12:11.551Z,12.33
2018-04-11T02:14:39.393Z,11.90
2018-04-11T02:17:06.993Z,10.30
2018-04-11T02:19:34.830Z,12.27
2018-04-11T02:22:02.511Z,12.90
2018-04-11T02:24:30.108Z,13.00
2018-04-11T02:26:57.714Z,12.63
2018-04-11T02:29:25.404Z,10.90
2018-04-11T02:31:53.123Z,12.83
2018-04-11T02:34:20.762Z,11.97
2018-04-11T02:36:48.580Z,11.00
2018-04-11T02:39:16.177Z,10.20
2018-04-11T02:41:43.780Z,9.90
2018-04-11T02:44:11.421Z,11.70
2018-04-11T02:46:39.011Z,10.93
2018-04-11T02:49:06.604Z,10.10
2018-04-11T02:51:34.226Z,11.13
2018-04-11T02:54:01.822Z,10.70
2018-04-11T02:56:29.411Z,12.83
2018-04-11T02:58:57.040Z,10.17
2018-04-11T03:01:24.640Z,11.53
2018-04-11T03:03:52.222Z,12.43
2018-04-11T03:06:19.989Z,10.70
2018-04-11T03:08:47.593Z,15.67
2018-04-11T03:11:15.185Z,12.17
2018-04-11T03:13:42.850Z,12.00
2018-04-11T03:16:10.472Z,13.70
2018-04-11T03:18:38.049Z,15.93
2018-04-11T03:21:05.673Z,12.90
2018-04-11T03:23:33.256Z,17.20
2018-04-11T03:26:00.845Z,17.77
2018-04-11T03:28:28.485Z,25.73
2018-04-11T03:30:56.117Z,33.90
2018-04-11T03:33:23.760Z,22.60
2018-04-11T03:35:51.380Z,13.47
2018-04-11T03:38:18.982Z,13.23
2018-04-11T03:40:46.576Z,15.83
2018-04-11T03:43:14.208Z,15.83
2018-04-11T03:45:41.887Z,15.10
2018-04-11T03:48:09.490Z,13.70
2018-04-11T03:50:37.129Z,14.10
2018-04-11T03:53:04.749Z,12.70
2018-04-11T03:55:32.364Z,13.07
2018-04-11T03:58:00.000Z,14.87
2018-04-11T04:00:27.597Z,13.60
2018-04-11T04:02:55.205Z,13.80
2018-04-11T04:05:22.840Z,11.20
2018-04-11T04:07:50.485Z,13.30
2018-04-11T04:10:18.077Z,12.50
2018-04-11T04:12:45.701Z,13.07
2018-04-11T04:15:25.042Z,13.47
2018-04-11T04:18:04.421Z,13.97
2018-04-11T04:20:36.735Z,13.10
2018-04-11T04:23:04.330Z,13.77
2018-04-11T04:25:31.974Z,12.83
2018-04-11T04:27:59.568Z,12.27
2018-04-11T04:30:27.198Z,12.70
2018-04-11T04:32:54.828Z,13.87
2018-04-11T04:35:22.435Z,11.73
2018-04-11T04:37:50.089Z,10.50
2018-04-11T04:40:17.961Z,12.77
2018-04-11T04:42:45.652Z,10.37
2018-04-11T04:45:13.302Z,9.97
2018-04-11T04:47:41.136Z,9.97
2018-04-11T04:50:08.820Z,10.23
2018-04-11T04:52:36.477Z,10.97
2018-04-11T04:55:04.092Z,10.10
2018-04-11T04:57:31.817Z,10.23
2018-04-11T04:59:59.486Z,11.17
2018-04-11T05:02:27.132Z,11.07
2018-04-11T05:04:54.856Z,10.50
2018-04-11T05:07:22.678Z,11.53
2018-04-11T05:09:50.268Z,10.57
2018-04-11T05:12:17.910Z,10.20
2018-04-11T05:14:45.649Z,10.60
2018-04-11T05:17:13.309Z,11.00
2018-04-11T05:19:40.983Z,11.13
2018-04-11T05:22:08.825Z,24.57
2018-04-11T05:24:36.455Z,12.50
2018-04-11T05:27:04.179Z,9.27
2018-04-11T05:29:31.825Z,10.43
2018-04-11T05:31:59.472Z,10.43
2018-04-11T05:34:27.152Z,10.53
2018-04-11T05:36:55.002Z,12.87
2018-04-11T05:39:22.681Z,15.17
2018-04-11T05:41:50.352Z,13.97
2018-04-11T05:44:18.014Z,12.30
2018-04-11T05:46:45.678Z,10.50
2018-04-11T05:49:13.330Z,10.80
2018-04-11T05:51:40.986Z,9.93
2018-04-11T05:54:08.662Z,9.07
2018-04-11T05:56:36.304Z,13.70
2018-04-11T05:59:03.932Z,8.90
2018-04-11T06:01:31.524Z,8.03
2018-04-11T06:03:59.304Z,9.13
2018-04-11T06:06:26.969Z,12.20
2018-04-11T06:08:54.841Z,9.30
2018-04-11T06:11:22.503Z,9.97
2018-04-11T06:13:50.167Z,12.67
2018-04-11T06:16:18.002Z,12.00
2018-04-11T06:18:45.903Z,11.90
2018-04-11T06:21:13.565Z,9.73
2018-04-11T06:23:41.428Z,12.20
2018-04-11T06:26:09.087Z,11.43
2018-04-11T06:28:36.746Z,12.50
2018-04-11T06:31:04.422Z,12.67
2018-04-11T06:33:32.072Z,15.60
2018-04-11T06:35:59.739Z,12.67
2018-04-11T06:38:27.398Z,12.20
2018-04-11T06:40:55.065Z,14.47
2018-04-11T06:43:22.726Z,13.37
2018-04-11T06:45:50.391Z,14.23
2018-04-11T06:48:18.058Z,10.43
2018-04-11T06:50:45.768Z,10.70
2018-04-11T06:53:13.584Z,9.57
2018-04-11T06:55:41.232Z,8.70
2018-04-11T06:58:08.896Z,11.40
2018-04-11T07:00:36.493Z,9.77
2018-04-11T07:03:04.135Z,11.10
2018-04-11T07:05:31.893Z,8.70
2018-04-11T07:07:59.567Z,10.13
2018-04-11T07:10:27.379Z,8.47
2018-04-11T07:12:55.106Z,7.40
2018-04-11T07:15:22.746Z,8.13
2018-04-11T07:17:50.411Z,9.60
2018-04-11T07:20:18.281Z,5.50
2018-04-11T07:22:45.879Z,6.30
2018-04-11T07:25:13.708Z,5.50
2018-04-11T07:27:41.526Z,5.80
2018-04-11T07:30:09.127Z,5.10
2018-04-11T07:32:36.710Z,3.90
2018-04-11T07:35:04.663Z,4.30
2018-04-11T07:37:32.243Z,3.70
2018-04-11T07:39:59.838Z,4.47
2018-04-11T07:42:27.829Z,4.60
2018-04-11T07:44:55.513Z,5.07
2018-04-11T07:47:23.169Z,4.67
2018-04-11T07:49:50.824Z,5.70
2018-04-11T07:52:18.499Z,4.80
2018-04-11T07:54:46.156Z,3.37
2018-04-11T07:57:13.787Z,4.57
2018-04-11T07:59:41.481Z,4.40
2018-04-11T08:02:09.108Z,4.30
2018-04-11T08:04:36.787Z,4.30
2018-04-11T08:07:04.655Z,4.20
2018-04-11T08:09:32.336Z,5.50
2018-04-11T08:11:59.977Z,2.50
2018-04-11T08:14:27.612Z,3.50
2018-04-11T08:16:55.372Z,2.93
2018-04-11T08:19:23.188Z,2.77
2018-04-11T08:21:50.849Z,2.80
2018-04-11T08:24:19.693Z,3.60
2018-04-11T08:26:47.398Z,3.43
2018-04-11T08:29:15.075Z,3.20
2018-04-11T08:31:42.698Z,2.80
2018-04-11T08:34:10.320Z,3.67
2018-04-11T08:36:38.037Z,3.53
2018-04-11T08:39:06.489Z,3.00
2018-04-11T08:41:34.257Z,3.87
2018-04-11T08:44:01.853Z,4.27
2018-04-11T08:46:29.557Z,3.83
2018-04-11T08:48:57.382Z,3.20
2018-04-11T08:51:24.972Z,3.30
2018-04-11T08:53:52.717Z,3.67
2018-04-11T08:56:20.329Z,4.33
2018-04-11T08:58:48.042Z,3.40
2018-04-11T09:01:15.700Z,2.60
2018-04-11T09:03:43.365Z,3.53
2018-04-11T09:06:11.027Z,3.20
2018-04-11T09:08:38.684Z,3.80
2018-04-11T09:11:06.406Z,3.53
2018-04-11T09:13:34.426Z,3.50
2018-04-11T09:16:02.013Z,3.40
2018-04-11T09:18:29.641Z,3.53
2018-04-11T09:20:57.413Z,2.67
2018-04-11T09:23:25.078Z,3.40
2018-04-11T09:25:52.696Z,4.23
2018-04-11T09:28:20.281Z,4.20
2018-04-11T09:30:48.061Z,3.90
2018-04-11T09:33:15.708Z,2.90
2018-04-11T09:35:43.386Z,6.00
2018-04-11T09:38:11.033Z,3.00
2018-04-11T09:40:38.692Z,4.47
2018-04-11T09:43:06.268Z,5.27
2018-04-11T09:45:33.899Z,3.73
2018-04-11T09:48:01.697Z,3.77
2018-04-11T09:50:29.281Z,3.80
2018-04-11T09:52:56.885Z,2.80
2018-04-11T09:55:24.544Z,2.83
2018-04-11T09:57:52.142Z,2.60
2018-04-11T10:00:19.730Z,2.73
2018-04-11T10:02:53.096Z,2.93
2018-04-11T10:05:20.682Z,2.60
2018-04-11T10:07:48.268Z,3.00
2018-04-11T10:10:15.892Z,3.07
2018-04-11T10:12:43.477Z,3.30
2018-04-11T10:15:11.052Z,2.47
2018-04-11T10:17:38.662Z,2.90
2018-04-11T10:20:06.224Z,3.23
2018-04-11T10:22:33.852Z,4.63
2018-04-11T10:25:01.510Z,3.30
2018-04-11T10:27:29.102Z,2.60
2018-04-11T10:29:56.687Z,2.80
2018-04-11T10:32:24.300Z,2.70
2018-04-11T10:34:51.877Z,3.03
2018-04-11T10:37:19.444Z,3.00
2018-04-11T10:39:47.151Z,4.83
2018-04-11T10:42:14.715Z,2.90
2018-04-11T10:44:42.640Z,3.10
2018-04-11T10:47:10.362Z,2.90
2018-04-11T10:49:37.935Z,2.90
2018-04-11T10:52:05.518Z,2.53
2018-04-11T10:54:33.134Z,2.83
2018-04-11T10:57:00.789Z,2.57
2018-04-11T10:59:28.412Z,2.93
2018-04-11T11:01:56.109Z,2.90
2018-04-11T11:04:24.349Z,4.70
2018-04-11T11:06:51.933Z,1.90
2018-04-11T11:09:19.597Z,3.23
2018-04-11T11:11:47.184Z,2.40
2018-04-11T11:14:14.760Z,2.80
2018-04-11T11:16:42.386Z,2.20
2018-04-11T11:19:10.012Z,2.53
2018-04-11T11:21:37.590Z,3.93
2018-04-11T11:24:05.238Z,3.77
2018-04-11T11:26:32.870Z,2.13
2018-04-11T11:29:00.514Z,2.43
2018-04-11T11:31:28.143Z,2.37
2018-04-11T11:33:55.785Z,2.60
2018-04-11T11:36:23.384Z,2.70
2018-04-11T11:38:51.065Z,2.67
2018-04-11T11:41:18.703Z,2.73
2018-04-11T11:43:46.301Z,2.43
2018-04-11T11:46:13.935Z,3.67
2018-04-11T11:48:41.521Z,3.00
2018-04-11T11:51:09.106Z,2.53
2018-04-11T11:53:36.784Z,3.20
2018-04-11T11:56:04.392Z,2.70
2018-04-11T11:58:31.977Z,2.07
2018-04-11T12:00:59.605Z,3.77
2018-04-11T12:03:27.209Z,3.27
2018-04-11T12:05:54.802Z,3.77
2018-04-11T12:08:22.436Z,2.90
2018-04-11T12:10:50.017Z,2.93
2018-04-11T12:13:17.604Z,2.60
2018-04-11T12:15:45.219Z,2.73
2018-04-11T12:18:12.804Z,2.50
2018-04-11T12:20:40.389Z,2.97
2018-04-11T12:23:08.003Z,4.37
2018-04-11T12:25:35.635Z,3.00
2018-04-11T12:28:03.276Z,3.20
2018-04-11T12:30:30.922Z,3.17
2018-04-11T12:32:58.515Z,2.73
2018-04-11T12:35:26.305Z,3.30
2018-04-11T12:37:53.931Z,3.20
2018-04-11T12:40:21.509Z,2.73
2018-04-11T12:42:49.116Z,4.53
2018-04-11T12:45:16.720Z,2.93
2018-04-11T12:47:44.298Z,2.20
2018-04-11T12:50:11.883Z,3.20
2018-04-11T12:52:39.511Z,2.50
2018-04-11T12:55:07.109Z,3.77
2018-04-11T12:57:34.738Z,2.90
2018-04-11T13:00:02.412Z,2.70
2018-04-11T13:02:30.032Z,4.00
2018-04-11T13:04:57.675Z,4.40
2018-04-11T13:07:25.283Z,3.07
2018-04-11T13:09:52.867Z,4.27
2018-04-11T13:12:20.473Z,2.70
2018-04-11T13:14:48.115Z,5.80
2018-04-11T13:17:15.697Z,4.27
2018-04-11T13:19:43.279Z,2.63
2018-04-11T13:22:10.904Z,4.50
2018-04-11T13:24:38.491Z,4.20
2018-04-11T13:27:06.065Z,4.80
2018-04-11T13:29:33.687Z,3.13
2018-04-11T13:32:01.286Z,5.00
2018-04-11T13:34:28.930Z,4.70
2018-04-11T13:36:56.630Z,3.63
2018-04-11T13:39:24.214Z,3.70
2018-04-11T13:41:51.796Z,5.40
2018-04-11T13:44:19.435Z,4.27
2018-04-11T13:46:47.064Z,4.50
2018-04-11T13:49:14.655Z,4.10
2018-04-11T13:51:42.264Z,4.90
2018-04-11T13:54:09.870Z,3.90
2018-04-11T13:56:37.439Z,3.80
2018-04-11T13:59:05.066Z,5.73
2018-04-11T14:01:32.842Z,4.30
2018-04-11T14:04:00.492Z,4.20
2018-04-11T14:06:28.123Z,3.20
2018-04-11T14:08:55.752Z,4.37
2018-04-11T14:11:23.503Z,4.07
2018-04-11T14:13:51.127Z,4.40
2018-04-11T14:16:18.822Z,3.97
2018-04-11T14:18:46.467Z,3.10
2018-04-11T14:21:14.129Z,4.07
2018-04-11T14:23:41.689Z,3.53
2018-04-11T14:26:09.452Z,3.13
2018-04-11T14:28:37.133Z,3.97
2018-04-11T14:31:04.752Z,3.90
2018-04-11T14:33:32.454Z,6.33
2018-04-11T14:36:00.089Z,3.40
2018-04-11T14:38:27.685Z,6.20
2018-04-11T14:40:55.446Z,4.03
2018-04-11T14:43:23.061Z,3.90
2018-04-11T14:45:50.761Z,3.23
2018-04-11T14:48:18.405Z,3.87
2018-04-11T14:50:46.104Z,3.80
2018-04-11T14:53:13.750Z,4.00
2018-04-11T14:55:41.424Z,4.60
2018-04-11T14:58:09.040Z,3.83
2018-04-11T15:00:36.737Z,3.57
2018-04-11T15:03:04.406Z,3.63
2018-04-11T15:05:32.045Z,4.20
2018-04-11T15:07:59.709Z,4.37
2018-04-11T15:10:27.450Z,4.17
2018-04-11T15:12:55.467Z,4.00
2018-04-11T15:15:23.113Z,3.80
2018-04-11T15:17:50.787Z,3.67
2018-04-11T15:20:18.641Z,5.93
2018-04-11T15:22:46.323Z,4.00
2018-04-11T15:25:13.972Z,3.53
2018-04-11T15:27:41.603Z,3.90
2018-04-11T15:30:09.397Z,3.60
2018-04-11T15:32:36.976Z,5.40
2018-04-11T15:35:04.734Z,4.70
2018-04-11T15:37:32.329Z,5.00
2018-04-11T15:40:00.049Z,2.87
2018-04-11T15:42:28.134Z,4.20
2018-04-11T15:44:55.705Z,3.57
2018-04-11T15:47:23.285Z,3.50
2018-04-11T15:49:50.913Z,4.47
2018-04-11T15:52:18.571Z,3.37
2018-04-11T15:54:46.229Z,4.40
2018-04-11T15:57:13.839Z,8.50
2018-04-11T15:59:41.426Z,2.83
2018-04-11T16:02:09.014Z,3.80
2018-04-11T16:04:36.615Z,3.10
2018-04-11T16:07:04.376Z,3.37
2018-04-11T16:09:32.033Z,4.30
2018-04-11T16:11:59.667Z,4.90
2018-04-11T16:14:27.338Z,4.43
2018-04-11T16:16:54.937Z,3.63
2018-04-11T16:19:22.583Z,4.90
2018-04-11T16:21:50.176Z,4.87
2018-04-11T16:24:17.809Z,3.10
2018-04-11T16:26:45.440Z,4.13
2018-04-11T16:29:13.014Z,3.40
2018-04-11T16:31:40.601Z,4.10
2018-04-11T16:34:08.228Z,3.27
2018-04-11T16:36:35.795Z,4.10
2018-04-11T16:39:03.437Z,3.63
2018-04-11T16:41:31.046Z,3.50
2018-04-11T16:43:58.648Z,3.43
2018-04-11T16:46:26.245Z,3.60
2018-04-11T16:48:53.859Z,4.70
2018-04-11T16:51:21.447Z,3.57
2018-04-11T16:53:49.085Z,3.90
2018-04-11T16:56:16.715Z,4.70
2018-04-11T16:58:44.297Z,4.50
2018-04-11T17:01:11.874Z,4.03
2018-04-11T17:03:39.583Z,5.57
2018-04-11T17:06:07.169Z,5.60
2018-04-11T17:08:34.771Z,4.07
2018-04-11T17:11:02.458Z,5.13
2018-04-11T17:13:30.060Z,6.57
2018-04-11T17:15:57.691Z,4.23
2018-04-11T17:18:25.308Z,5.00
2018-04-11T17:21:04.635Z,3.57
2018-04-11T17:23:44.036Z,6.07
2018-04-11T17:26:23.318Z,3.67
2018-04-11T17:29:02.701Z,4.37
2018-04-11T17:31:32.212Z,3.70
2018-04-11T17:33:59.841Z,6.30
2018-04-11T17:36:27.453Z,5.70
2018-04-11T17:38:55.030Z,6.37
2018-04-11T17:41:23.396Z,5.90
2018-04-11T17:43:51.062Z,6.23
2018-04-11T17:46:18.651Z,5.70
2018-04-11T17:48:46.254Z,6.13
2018-04-11T17:51:13.883Z,6.67
2018-04-11T17:53:41.468Z,6.00
2018-04-11T17:56:09.065Z,6.57
2018-04-11T17:58:36.696Z,6.20
2018-04-11T18:01:04.295Z,6.37
2018-04-11T18:03:31.881Z,6.77
2018-04-11T18:05:59.503Z,7.13
2018-04-11T18:08:27.083Z,5.87
2018-04-11T18:10:54.662Z,8.37
2018-04-11T18:13:22.277Z,8.33
2018-04-11T18:15:49.895Z,6.80
2018-04-11T18:18:17.478Z,4.73
2018-04-11T18:20:45.109Z,4.67
2018-04-11T18:23:12.699Z,5.50
2018-04-11T18:25:40.288Z,5.80
2018-04-11T18:28:07.900Z,4.83
2018-04-11T18:30:35.500Z,5.60
2018-04-11T18:33:03.129Z,6.40
2018-04-11T18:35:30.753Z,6.50
2018-04-11T18:37:58.340Z,7.10
2018-04-11T18:40:25.933Z,6.20
2018-04-11T18:42:53.720Z,11.67
2018-04-11T18:45:21.322Z,5.70
2018-04-11T18:47:48.917Z,6.40
2018-04-11T18:50:16.551Z,6.10
2018-04-11T18:52:44.136Z,7.33
2018-04-11T18:55:11.742Z,6.20
2018-04-11T18:57:39.361Z,7.70
2018-04-11T19:00:06.959Z,8.37
2018-04-11T19:02:34.546Z,9.03
2018-04-11T19:05:02.165Z,14.17
2018-04-11T19:07:29.848Z,11.70
2018-04-11T19:09:57.419Z,12.47
2018-04-11T19:12:25.033Z,9.70
2018-04-11T19:14:52.600Z,10.20
2018-04-11T19:17:20.177Z,9.03
2018-04-11T19:19:47.792Z,10.03
2018-04-11T19:22:15.359Z,9.50
2018-04-11T19:24:42.954Z,10.67
2018-04-11T19:27:10.620Z,11.63
2018-04-11T19:29:38.247Z,8.43
2018-04-11T19:32:06.348Z,8.70
2018-04-11T19:34:33.980Z,6.90
2018-04-11T19:37:01.586Z,6.67
2018-04-11T19:39:29.186Z,6.20
2018-04-11T19:41:56.840Z,7.50
2018-04-11T19:44:24.518Z,7.07
2018-04-11T19:46:52.148Z,7.37
2018-04-11T19:49:19.816Z,6.77
2018-04-11T19:51:47.441Z,7.37
2018-04-11T19:54:15.048Z,6.80
2018-04-11T19:56:42.672Z,6.03
2018-04-11T19:59:10.311Z,6.83
2018-04-11T20:01:37.898Z,5.93
2018-04-11T20:04:05.592Z,5.27
2018-04-11T20:06:33.229Z,6.27
2018-04-11T20:09:01.620Z,5.90
2018-04-11T20:11:29.238Z,5.03
2018-04-11T20:13:56.935Z,5.53
2018-04-11T20:16:24.564Z,5.70
2018-04-11T20:18:52.276Z,5.23
2018-04-11T20:21:20.874Z,6.87
2018-04-11T20:23:48.622Z,6.00
2018-04-11T20:26:16.261Z,6.60
2018-04-11T20:28:44.883Z,7.30
2018-04-11T20:31:12.849Z,8.93
2018-04-11T20:33:40.421Z,7.57
2018-04-11T20:36:08.015Z,7.40
2018-04-11T20:38:35.647Z,7.20
2018-04-11T20:41:03.220Z,7.43
2018-04-11T20:43:30.823Z,7.90
2018-04-11T20:45:58.448Z,6.57
2018-04-11T20:48:26.077Z,7.00
2018-04-11T20:50:53.684Z,6.53
2018-04-11T20:53:21.306Z,6.80
2018-04-11T20:55:48.892Z,6.73
2018-04-11T20:58:16.489Z,7.87
2018-04-11T21:00:44.113Z,5.87
2018-04-11T21:03:11.696Z,7.27
2018-04-11T21:05:39.301Z,6.43
2018-04-11T21:08:06.935Z,6.97
2018-04-11T21:10:34.522Z,7.77
2018-04-11T21:13:02.097Z,7.93
2018-04-11T21:15:29.713Z,8.90
2018-04-11T21:17:57.355Z,8.17
2018-04-11T21:20:24.955Z,7.27
2018-04-11T21:22:52.639Z,8.10
2018-04-11T21:25:20.221Z,7.80
2018-04-11T21:27:47.800Z,9.53
2018-04-11T21:30:15.432Z,8.63
2018-04-11T21:32:43.027Z,7.63
2018-04-11T21:35:10.602Z,9.90
2018-04-11T21:37:38.224Z,8.33
2018-04-11T21:40:05.823Z,8.87
2018-04-11T21:42:33.399Z,7.33
2018-04-11T21:45:01.023Z,8.83
2018-04-11T21:47:28.651Z,7.90
2018-04-11T21:49:56.241Z,9.10
2018-04-11T21:52:23.880Z,8.33
2018-04-11T21:54:51.467Z,8.53
2018-04-11T21:57:19.066Z,9.43
2018-04-11T21:59:46.685Z,8.10
2018-04-11T22:02:14.280Z,9.27
2018-04-11T22:04:41.862Z,9.60
2018-04-11T22:07:09.499Z,8.50
2018-04-11T22:09:37.094Z,8.33
2018-04-11T22:12:04.740Z,9.10
2018-04-11T22:14:32.364Z,9.27
2018-04-11T22:16:59.964Z,8.20
2018-04-11T22:19:27.561Z,8.50
2018-04-11T22:21:55.200Z,9.10
2018-04-11T22:24:22.792Z,9.20
2018-04-11T22:26:50.428Z,8.53
2018-04-11T22:29:18.060Z,8.90
2018-04-11T22:31:45.667Z,11.20
2018-04-11T22:34:13.249Z,9.93
2018-04-11T22:36:40.898Z,9.40
2018-04-11T22:39:08.537Z,10.40
2018-04-11T22:41:36.125Z,8.87
2018-04-11T22:44:03.742Z,9.93
2018-04-11T22:46:31.366Z,7.80
2018-04-11T22:48:58.970Z,9.50
2018-04-11T22:51:26.612Z,7.60
2018-04-11T22:53:54.204Z,10.57
2018-04-11T22:56:21.835Z,9.93
2018-04-11T22:58:49.456Z,9.40
2018-04-11T23:01:17.049Z,7.83
2018-04-11T23:03:44.634Z,7.70
2018-04-11T23:06:12.261Z,9.23
2018-04-11T23:08:39.853Z,9.97
2018-04-11T23:11:07.490Z,9.97
2018-04-11T23:13:35.178Z,10.10
2018-04-11T23:16:02.845Z,7.97
2018-04-11T23:18:30.507Z,8.87
2018-04-11T23:20:58.161Z,9.53
2018-04-11T23:23:25.764Z,9.60
2018-04-11T23:25:53.387Z,10.03
2018-04-11T23:28:21.021Z,10.00
2018-04-11T23:30:48.603Z,7.80
2018-04-11T23:33:16.199Z,8.80
2018-04-11T23:35:43.828Z,10.00
2018-04-11T23:38:11.468Z,9.70
2018-04-11T23:40:39.065Z,10.70
2018-04-11T23:43:06.699Z,8.23
2018-04-11T23:45:34.314Z,9.83
2018-04-11T23:48:01.916Z,9.83
2018-04-11T23:50:29.572Z,13.40
2018-04-11T23:52:57.190Z,18.50
2018-04-11T23:55:24.790Z,14.37
2018-04-11T23:57:52.416Z,10.80
